createdAt,value
2023-04-24T00:00:34.471Z,622.94
2023-04-24T00:01:34.484Z,622.91
2023-04-24T00:02:34.622Z,622.91
2023-04-24T00:03:34.503Z,622.90
2023-04-24T00:04:34.638Z,622.86
2023-04-24T00:05:34.420Z,622.89
2023-04-24T00:06:34.462Z,622.89
2023-04-24T00:07:34.407Z,622.88
2023-04-24T00:08:34.384Z,622.90
2023-04-24T00:09:34.371Z,622.94
2023-04-24T00:10:34.382Z,622.94
2023-04-24T00:11:34.355Z,622.94
2023-04-24T00:12:34.354Z,622.97
2023-04-24T00:13:34.339Z,622.98
2023-04-24T00:14:34.340Z,622.99
2023-04-24T00:15:34.314Z,622.96
2023-04-24T00:16:34.329Z,622.95
2023-04-24T00:17:34.328Z,622.96
2023-04-24T00:18:34.330Z,622.96
2023-04-24T00:19:34.264Z,622.98
2023-04-24T00:20:34.251Z,623.00
2023-04-24T00:21:34.242Z,623.00
2023-04-24T00:22:34.248Z,622.98
2023-04-24T00:23:34.220Z,622.97
2023-04-24T00:24:34.209Z,622.97
2023-04-24T00:25:34.265Z,622.95
2023-04-24T00:26:34.190Z,622.91
2023-04-24T00:27:34.185Z,622.95
2023-04-24T00:28:34.177Z,622.92
2023-04-24T00:29:34.153Z,622.87
2023-04-24T00:30:34.161Z,622.93
2023-04-24T00:31:34.170Z,622.87
2023-04-24T00:32:34.142Z,622.87
2023-04-24T00:33:34.113Z,622.82
2023-04-24T00:34:34.122Z,622.88
2023-04-24T00:35:34.094Z,622.90
2023-04-24T00:36:34.075Z,622.88
2023-04-24T00:37:34.089Z,622.93
2023-04-24T00:38:34.092Z,622.97
2023-04-24T00:39:34.048Z,622.99
2023-04-24T00:40:34.047Z,623.00
2023-04-24T00:41:34.056Z,623.00
2023-04-24T00:42:41.537Z,622.98
2023-04-24T00:43:34.003Z,622.92
2023-04-24T00:44:34.006Z,622.92
2023-04-24T00:45:33.998Z,622.96
2023-04-24T00:46:34.004Z,622.94
2023-04-24T00:47:33.957Z,622.94
2023-04-24T00:48:33.942Z,622.96
2023-04-24T00:49:33.936Z,622.96
2023-04-24T00:50:33.952Z,622.95
2023-04-24T00:51:33.931Z,622.94
2023-04-24T00:52:34.007Z,622.86
2023-04-24T00:53:33.908Z,622.88
2023-04-24T00:54:33.895Z,622.89
2023-04-24T00:55:33.877Z,622.87
2023-04-24T00:56:33.857Z,622.93
2023-04-24T00:57:33.866Z,622.90
2023-04-24T00:58:33.838Z,622.93
2023-04-24T00:59:33.856Z,622.95
2023-04-24T01:00:33.828Z,622.99
2023-04-24T01:01:33.882Z,622.94
2023-04-24T01:02:33.938Z,622.94
2023-04-24T01:03:33.888Z,622.96
2023-04-24T01:04:33.936Z,622.96
2023-04-24T01:05:33.779Z,622.93
2023-04-24T01:06:33.775Z,622.96
2023-04-24T01:07:33.746Z,622.99
2023-04-24T01:08:33.736Z,622.97
2023-04-24T01:09:33.730Z,622.98
2023-04-24T01:10:33.727Z,622.95
2023-04-24T01:11:33.714Z,622.95
2023-04-24T01:12:33.683Z,622.95
2023-04-24T01:13:33.712Z,622.97
2023-04-24T01:14:33.668Z,622.96
2023-04-24T01:15:33.708Z,622.97
2023-04-24T01:16:33.645Z,622.98
2023-04-24T01:17:33.682Z,622.97
2023-04-24T01:18:33.628Z,622.97
2023-04-24T01:19:33.628Z,622.96
2023-04-24T01:20:33.619Z,622.96
2023-04-24T01:21:33.595Z,622.95
2023-04-24T01:22:33.603Z,622.97
2023-04-24T01:23:33.572Z,622.96
2023-04-24T01:24:33.561Z,622.98
2023-04-24T01:25:33.573Z,622.99
2023-04-24T01:26:33.536Z,622.97
2023-04-24T01:27:33.537Z,622.99
2023-04-24T01:28:33.516Z,623.00
2023-04-24T01:29:33.559Z,622.99
2023-04-24T01:30:33.536Z,623.01
2023-04-24T01:31:33.568Z,623.01
2023-04-24T01:32:33.531Z,623.00
2023-04-24T01:33:33.495Z,622.95
2023-04-24T01:34:33.465Z,622.94
2023-04-24T01:35:33.475Z,622.94
2023-04-24T01:36:33.466Z,622.92
2023-04-24T01:37:33.446Z,622.91
2023-04-24T01:38:33.439Z,622.93
2023-04-24T01:39:33.398Z,622.94
2023-04-24T01:40:33.406Z,622.94
2023-04-24T01:41:33.383Z,622.94
2023-04-24T01:42:33.363Z,622.93
2023-04-24T01:43:33.358Z,622.92
2023-04-24T01:44:33.341Z,622.93
2023-04-24T01:45:33.337Z,622.90
2023-04-24T01:46:33.361Z,622.88
2023-04-24T01:47:33.341Z,622.90
2023-04-24T01:48:33.293Z,622.85
2023-04-24T01:49:33.285Z,622.86
2023-04-24T01:50:33.272Z,622.85
2023-04-24T01:51:33.281Z,622.86
2023-04-24T01:52:33.253Z,622.89
2023-04-24T01:53:33.242Z,622.86
2023-04-24T01:54:33.263Z,622.88
2023-04-24T01:55:33.221Z,622.91
2023-04-24T01:56:33.223Z,622.93
2023-04-24T01:57:33.308Z,622.92
2023-04-24T01:58:33.211Z,622.94
2023-04-24T01:59:33.190Z,622.94
2023-04-24T02:00:33.216Z,622.91
2023-04-24T02:01:33.210Z,622.94
2023-04-24T02:02:33.344Z,622.97
2023-04-24T02:03:33.447Z,622.94
2023-04-24T02:04:33.244Z,622.96
2023-04-24T02:05:33.147Z,622.94
2023-04-24T02:06:33.270Z,622.95
2023-04-24T02:07:33.095Z,622.95
2023-04-24T02:08:33.078Z,622.95
2023-04-24T02:09:33.073Z,622.96
2023-04-24T02:10:33.073Z,622.97
2023-04-24T02:11:33.058Z,622.95
2023-04-24T02:12:33.033Z,622.87
2023-04-24T02:13:33.032Z,622.88
2023-04-24T02:14:33.018Z,622.93
2023-04-24T02:15:33.010Z,622.91
2023-04-24T02:16:33.036Z,622.94
2023-04-24T02:17:33.006Z,622.95
2023-04-24T02:18:32.971Z,622.93
2023-04-24T02:19:32.971Z,622.94
2023-04-24T02:20:32.944Z,622.91
2023-04-24T02:21:32.936Z,622.93
2023-04-24T02:22:32.939Z,622.96
2023-04-24T02:23:32.909Z,622.95
2023-04-24T02:24:32.897Z,622.93
2023-04-24T02:25:32.912Z,622.90
2023-04-24T02:26:32.895Z,622.94
2023-04-24T02:27:32.895Z,622.92
2023-04-24T02:28:32.873Z,622.91
2023-04-24T02:29:32.849Z,622.96
2023-04-24T02:30:32.856Z,622.92
2023-04-24T02:31:32.873Z,622.95
2023-04-24T02:32:32.811Z,622.97
2023-04-24T02:33:33.452Z,622.97
2023-04-24T02:34:32.808Z,622.97
2023-04-24T02:35:32.821Z,622.99
2023-04-24T02:36:32.791Z,622.97
2023-04-24T02:37:32.774Z,622.97
2023-04-24T02:38:32.757Z,622.97
2023-04-24T02:39:32.757Z,622.97
2023-04-24T02:40:32.725Z,622.99
2023-04-24T02:41:32.728Z,622.99
2023-04-24T02:42:32.752Z,623.02
2023-04-24T02:43:40.233Z,623.05
2023-04-24T02:44:32.686Z,623.01
2023-04-24T02:45:32.690Z,623.00
2023-04-24T02:46:32.666Z,622.96
2023-04-24T02:47:32.705Z,622.93
2023-04-24T02:48:32.650Z,622.88
2023-04-24T02:49:32.632Z,622.87
2023-04-24T02:50:32.622Z,622.88
2023-04-24T02:51:32.616Z,622.88
2023-04-24T02:52:32.634Z,622.91
2023-04-24T02:53:32.588Z,622.87
2023-04-24T02:54:32.595Z,622.85
2023-04-24T02:55:32.604Z,622.90
2023-04-24T02:56:32.553Z,622.88
2023-04-24T02:57:32.559Z,622.89
2023-04-24T02:58:32.663Z,622.92
2023-04-24T02:59:32.528Z,622.93
2023-04-24T03:00:32.521Z,622.91
2023-04-24T03:01:32.522Z,622.92
2023-04-24T03:02:32.576Z,622.92
2023-04-24T03:03:32.639Z,622.89
2023-04-24T03:04:32.698Z,622.91
2023-04-24T03:05:32.478Z,622.94
2023-04-24T03:06:32.475Z,622.92
2023-04-24T03:07:32.446Z,622.94
2023-04-24T03:08:32.440Z,622.93
2023-04-24T03:09:32.418Z,622.92
2023-04-24T03:10:32.417Z,622.92
2023-04-24T03:11:32.395Z,622.93
2023-04-24T03:12:32.393Z,622.91
2023-04-24T03:13:32.381Z,622.92
2023-04-24T03:14:32.393Z,622.94
2023-04-24T03:15:32.379Z,622.93
2023-04-24T03:16:32.380Z,622.95
2023-04-24T03:17:32.351Z,622.96
2023-04-24T03:18:32.328Z,622.97
2023-04-24T03:19:32.323Z,622.97
2023-04-24T03:20:32.304Z,622.97
2023-04-24T03:21:32.295Z,622.96
2023-04-24T03:22:32.286Z,622.94
2023-04-24T03:23:32.284Z,622.97
2023-04-24T03:24:32.256Z,622.98
2023-04-24T03:25:32.241Z,622.99
2023-04-24T03:26:32.239Z,622.93
2023-04-24T03:27:32.218Z,622.90
2023-04-24T03:28:32.220Z,622.93
2023-04-24T03:29:32.211Z,622.93
2023-04-24T03:30:32.208Z,622.92
2023-04-24T03:31:32.240Z,622.92
2023-04-24T03:32:32.180Z,622.89
2023-04-24T03:33:32.192Z,622.90
2023-04-24T03:34:32.158Z,622.91
2023-04-24T03:35:32.213Z,622.87
2023-04-24T03:36:32.132Z,622.89
2023-04-24T03:37:32.133Z,622.86
2023-04-24T03:38:32.143Z,622.85
2023-04-24T03:39:32.146Z,622.84
2023-04-24T03:40:32.094Z,622.82
2023-04-24T03:41:32.082Z,622.84
2023-04-24T03:42:32.058Z,622.85
2023-04-24T03:43:32.047Z,622.83
2023-04-24T03:44:32.067Z,622.88
2023-04-24T03:45:32.021Z,622.89
2023-04-24T03:46:32.095Z,622.90
2023-04-24T03:47:32.089Z,622.90
2023-04-24T03:48:31.999Z,622.93
2023-04-24T03:49:31.981Z,622.88
2023-04-24T03:50:31.980Z,622.89
2023-04-24T03:51:31.959Z,622.91
2023-04-24T03:52:31.961Z,622.88
2023-04-24T03:53:31.942Z,622.93
2023-04-24T03:54:31.937Z,622.89
2023-04-24T03:55:31.931Z,622.91
2023-04-24T03:56:31.910Z,622.92
2023-04-24T03:57:31.896Z,622.91
2023-04-24T03:58:31.912Z,622.91
2023-04-24T03:59:31.880Z,622.95
2023-04-24T04:00:31.866Z,622.95
2023-04-24T04:01:31.915Z,622.93
2023-04-24T04:02:32.649Z,622.88
2023-04-24T04:03:32.082Z,622.93
2023-04-24T04:04:32.190Z,622.94
2023-04-24T04:05:31.889Z,622.86
2023-04-24T04:06:31.809Z,622.91
2023-04-24T04:07:31.791Z,622.88
2023-04-24T04:08:31.776Z,622.87
2023-04-24T04:09:31.778Z,622.90
2023-04-24T04:10:31.759Z,622.94
2023-04-24T04:11:31.741Z,622.96
2023-04-24T04:12:31.724Z,622.95
2023-04-24T04:13:31.727Z,622.93
2023-04-24T04:14:31.702Z,622.93
2023-04-24T04:15:31.692Z,622.94
2023-04-24T04:16:31.720Z,622.95
2023-04-24T04:17:31.721Z,622.94
2023-04-24T04:18:31.697Z,622.91
2023-04-24T04:19:31.652Z,622.93
2023-04-24T04:20:31.637Z,622.89
2023-04-24T04:21:31.651Z,622.89
2023-04-24T04:22:31.630Z,622.90
2023-04-24T04:23:31.608Z,622.89
2023-04-24T04:24:31.602Z,622.90
2023-04-24T04:25:31.588Z,622.89
2023-04-24T04:26:31.569Z,622.94
2023-04-24T04:27:31.560Z,622.94
2023-04-24T04:28:31.568Z,622.94
2023-04-24T04:29:31.547Z,622.84
2023-04-24T04:30:31.529Z,622.82
2023-04-24T04:31:31.534Z,622.87
2023-04-24T04:32:31.588Z,622.89
2023-04-24T04:33:31.496Z,622.87
2023-04-24T04:34:31.517Z,622.81
2023-04-24T04:35:31.497Z,622.82
2023-04-24T04:36:31.527Z,622.81
2023-04-24T04:37:31.466Z,622.82
2023-04-24T04:38:31.450Z,622.82
2023-04-24T04:39:31.451Z,622.81
2023-04-24T04:40:31.418Z,622.82
2023-04-24T04:41:31.418Z,622.83
2023-04-24T04:42:31.404Z,622.84
2023-04-24T04:43:31.383Z,622.81
2023-04-24T04:44:38.888Z,622.88
2023-04-24T04:45:31.393Z,622.85
2023-04-24T04:46:31.356Z,622.79
2023-04-24T04:47:31.381Z,622.81
2023-04-24T04:48:31.331Z,622.83
2023-04-24T04:49:31.316Z,622.79
2023-04-24T04:50:31.390Z,622.77
2023-04-24T04:51:31.310Z,622.78
2023-04-24T04:52:31.306Z,622.78
2023-04-24T04:53:31.276Z,622.81
2023-04-24T04:54:31.277Z,622.83
2023-04-24T04:55:31.255Z,622.82
2023-04-24T04:56:31.241Z,622.84
2023-04-24T04:57:31.255Z,622.87
2023-04-24T04:58:31.223Z,622.89
2023-04-24T04:59:31.207Z,622.86
2023-04-24T05:00:31.213Z,622.84
2023-04-24T05:01:31.233Z,622.89
2023-04-24T05:02:31.337Z,622.88
2023-04-24T05:03:31.326Z,622.85
2023-04-24T05:04:31.387Z,622.87
2023-04-24T05:05:31.160Z,622.86
2023-04-24T05:06:31.155Z,622.83
2023-04-24T05:07:31.123Z,622.81
2023-04-24T05:08:31.139Z,622.84
2023-04-24T05:09:31.098Z,622.86
2023-04-24T05:10:31.092Z,622.85
2023-04-24T05:11:31.081Z,622.89
2023-04-24T05:12:31.088Z,622.85
2023-04-24T05:13:40.422Z,622.87
2023-04-24T05:14:32.060Z,622.84
2023-04-24T05:15:31.034Z,622.84
2023-04-24T05:16:31.059Z,622.88
2023-04-24T05:17:31.068Z,622.86
2023-04-24T05:18:31.001Z,622.89
2023-04-24T05:19:31.004Z,622.92
2023-04-24T05:20:30.997Z,622.89
2023-04-24T05:21:30.978Z,622.85
2023-04-24T05:22:30.983Z,622.88
2023-04-24T05:23:30.962Z,622.95
2023-04-24T05:24:30.946Z,622.96
2023-04-24T05:25:30.926Z,622.90
2023-04-24T05:26:30.919Z,622.88
2023-04-24T05:27:30.910Z,622.85
2023-04-24T05:28:30.914Z,622.90
2023-04-24T05:29:30.882Z,622.86
2023-04-24T05:30:30.876Z,622.86
2023-04-24T05:31:30.931Z,622.91
2023-04-24T05:32:30.901Z,622.91
2023-04-24T05:33:30.847Z,622.94
2023-04-24T05:34:30.837Z,622.92
2023-04-24T05:35:30.812Z,622.89
2023-04-24T05:36:30.841Z,622.87
2023-04-24T05:37:30.801Z,622.91
2023-04-24T05:38:30.962Z,622.95
2023-04-24T05:39:30.798Z,622.93
2023-04-24T05:40:30.811Z,622.95
2023-04-24T05:41:30.759Z,622.97
2023-04-24T05:42:30.745Z,622.94
2023-04-24T05:43:30.761Z,622.96
2023-04-24T05:44:30.734Z,622.93
2023-04-24T05:45:30.746Z,622.95
2023-04-24T05:46:30.753Z,622.91
2023-04-24T05:47:30.739Z,622.87
2023-04-24T05:48:30.675Z,622.88
2023-04-24T05:49:30.716Z,622.92
2023-04-24T05:50:30.654Z,622.92
2023-04-24T05:51:30.658Z,622.95
2023-04-24T05:52:30.724Z,622.99
2023-04-24T05:53:31.621Z,623.01
2023-04-24T05:54:30.693Z,623.02
2023-04-24T05:55:30.639Z,623.04
2023-04-24T05:56:30.608Z,623.05
2023-04-24T05:57:30.615Z,623.02
2023-04-24T05:58:30.609Z,623.00
2023-04-24T05:59:30.566Z,622.96
2023-04-24T06:00:30.551Z,622.94
2023-04-24T06:01:30.537Z,622.97
2023-04-24T06:02:30.748Z,622.97
2023-04-24T06:03:30.685Z,623.02
2023-04-24T06:04:30.813Z,623.03
2023-04-24T06:05:30.662Z,623.04
2023-04-24T06:06:30.489Z,623.06
2023-04-24T06:07:30.517Z,623.06
2023-04-24T06:08:30.466Z,622.97
2023-04-24T06:09:30.457Z,622.92
2023-04-24T06:10:30.547Z,622.87
2023-04-24T06:11:30.433Z,622.87
2023-04-24T06:12:30.439Z,622.86
2023-04-24T06:13:30.412Z,622.87
2023-04-24T06:14:30.405Z,622.87
2023-04-24T06:15:30.376Z,622.90
2023-04-24T06:16:30.388Z,622.92
2023-04-24T06:17:30.402Z,622.91
2023-04-24T06:18:30.354Z,622.85
2023-04-24T06:19:30.354Z,622.84
2023-04-24T06:20:30.329Z,622.86
2023-04-24T06:21:30.372Z,622.92
2023-04-24T06:22:30.313Z,622.92
2023-04-24T06:23:30.301Z,622.98
2023-04-24T06:24:30.316Z,623.00
2023-04-24T06:25:30.306Z,622.94
2023-04-24T06:26:30.281Z,622.93
2023-04-24T06:27:30.249Z,622.87
2023-04-24T06:28:30.269Z,622.89
2023-04-24T06:29:30.224Z,622.91
2023-04-24T06:30:30.280Z,622.94
2023-04-24T06:31:30.262Z,622.90
2023-04-24T06:32:30.215Z,622.93
2023-04-24T06:33:30.218Z,622.94
2023-04-24T06:34:30.192Z,622.94
2023-04-24T06:35:30.166Z,622.96
2023-04-24T06:36:30.158Z,622.95
2023-04-24T06:37:30.156Z,622.94
2023-04-24T06:38:30.139Z,622.97
2023-04-24T06:39:30.186Z,623.00
2023-04-24T06:40:30.109Z,623.04
2023-04-24T06:41:30.114Z,623.06
2023-04-24T06:42:30.176Z,622.95
2023-04-24T06:43:30.132Z,622.98
2023-04-24T06:44:30.073Z,622.93
2023-04-24T06:45:37.573Z,622.91
2023-04-24T06:46:30.200Z,622.92
2023-04-24T06:47:30.047Z,622.88
2023-04-24T06:48:30.031Z,622.89
2023-04-24T06:49:30.008Z,622.93
2023-04-24T06:50:30.003Z,623.00
2023-04-24T06:51:30.008Z,623.02
2023-04-24T06:52:29.977Z,622.98
2023-04-24T06:53:29.978Z,622.95
2023-04-24T06:54:29.969Z,622.95
2023-04-24T06:55:29.938Z,622.96
2023-04-24T06:56:29.943Z,622.94
2023-04-24T06:57:29.917Z,622.93
2023-04-24T06:58:29.936Z,622.98
2023-04-24T06:59:29.910Z,622.97
2023-04-24T07:00:29.891Z,623.03
2023-04-24T07:01:30.038Z,623.07
2023-04-24T07:02:30.003Z,623.08
2023-04-24T07:03:29.935Z,623.04
2023-04-24T07:04:31.189Z,622.98
2023-04-24T07:05:29.842Z,622.95
2023-04-24T07:06:29.851Z,622.90
2023-04-24T07:07:29.825Z,622.98
2023-04-24T07:08:29.799Z,622.97
2023-04-24T07:09:29.875Z,622.96
2023-04-24T07:10:29.780Z,623.00
2023-04-24T07:11:29.766Z,623.03
2023-04-24T07:12:29.776Z,622.99
2023-04-24T07:13:29.778Z,623.01
2023-04-24T07:14:29.762Z,622.98
2023-04-24T07:15:29.740Z,622.95
2023-04-24T07:16:29.750Z,622.98
2023-04-24T07:17:29.728Z,622.98
2023-04-24T07:18:29.702Z,622.98
2023-04-24T07:19:29.692Z,623.02
2023-04-24T07:20:29.687Z,623.03
2023-04-24T07:21:29.751Z,623.04
2023-04-24T07:22:29.661Z,623.00
2023-04-24T07:23:29.654Z,623.03
2023-04-24T07:24:30.786Z,623.05
2023-04-24T07:25:29.615Z,623.04
2023-04-24T07:26:29.667Z,623.02
2023-04-24T07:27:29.609Z,623.06
2023-04-24T07:28:29.604Z,623.03
2023-04-24T07:29:29.576Z,622.96
2023-04-24T07:30:29.593Z,622.96
2023-04-24T07:31:29.601Z,622.97
2023-04-24T07:32:29.562Z,623.01
2023-04-24T07:33:29.549Z,623.07
2023-04-24T07:34:29.526Z,623.11
2023-04-24T07:35:29.506Z,623.04
2023-04-24T07:36:29.528Z,623.07
2023-04-24T07:37:29.502Z,623.03
2023-04-24T07:38:29.481Z,623.01
2023-04-24T07:39:29.476Z,622.99
2023-04-24T07:40:29.464Z,623.09
2023-04-24T07:41:29.464Z,623.08
2023-04-24T07:42:29.439Z,623.09
2023-04-24T07:43:29.477Z,623.10
2023-04-24T07:44:29.426Z,623.27
2023-04-24T07:45:29.432Z,623.56
2023-04-24T07:46:29.480Z,623.65
2023-04-24T07:47:29.427Z,623.12
2023-04-24T07:48:29.406Z,623.08
2023-04-24T07:49:29.361Z,623.08
2023-04-24T07:50:29.572Z,623.03
2023-04-24T07:51:29.327Z,623.06
2023-04-24T07:52:29.343Z,623.07
2023-04-24T07:53:29.336Z,622.97
2023-04-24T07:54:29.298Z,622.96
2023-04-24T07:55:29.289Z,622.99
2023-04-24T07:56:29.323Z,623.00
2023-04-24T07:57:29.304Z,622.99
2023-04-24T07:58:29.272Z,622.99
2023-04-24T07:59:29.261Z,623.04
2023-04-24T08:00:29.271Z,623.06
2023-04-24T08:01:29.250Z,623.04
2023-04-24T08:02:29.444Z,623.03
2023-04-24T08:03:29.347Z,622.99
2023-04-24T08:04:29.524Z,622.99
2023-04-24T08:05:29.274Z,623.01
2023-04-24T08:06:29.180Z,623.02
2023-04-24T08:07:29.208Z,623.01
2023-04-24T08:08:29.167Z,623.01
2023-04-24T08:09:29.136Z,622.99
2023-04-24T08:10:29.168Z,622.96
2023-04-24T08:11:29.148Z,622.97
2023-04-24T08:12:29.117Z,622.97
2023-04-24T08:13:29.108Z,622.98
2023-04-24T08:14:29.134Z,623.05
2023-04-24T08:15:29.517Z,623.05
2023-04-24T08:16:29.151Z,623.00
2023-04-24T08:17:29.256Z,622.97
2023-04-24T08:18:29.101Z,623.00
2023-04-24T08:19:29.033Z,623.10
2023-04-24T08:20:29.012Z,623.14
2023-04-24T08:21:29.003Z,623.27
2023-04-24T08:22:28.991Z,623.93
2023-04-24T08:23:28.977Z,623.38
2023-04-24T08:24:28.992Z,623.08
2023-04-24T08:25:29.040Z,623.04
2023-04-24T08:26:28.968Z,623.01
2023-04-24T08:27:28.961Z,623.03
2023-04-24T08:28:28.936Z,623.08
2023-04-24T08:29:29.006Z,623.14
2023-04-24T08:30:28.912Z,623.11
2023-04-24T08:31:28.978Z,623.17
2023-04-24T08:32:28.969Z,623.37
2023-04-24T08:33:28.876Z,623.86
2023-04-24T08:34:28.904Z,624.26
2023-04-24T08:35:28.873Z,624.44
2023-04-24T08:36:43.652Z,624.52
2023-04-24T08:37:28.869Z,623.86
2023-04-24T08:38:28.820Z,623.13
2023-04-24T08:39:28.805Z,623.03
2023-04-24T08:40:28.802Z,622.95
2023-04-24T08:41:28.845Z,622.93
2023-04-24T08:42:28.800Z,622.95
2023-04-24T08:43:28.916Z,622.98
2023-04-24T08:44:28.777Z,622.98
2023-04-24T08:45:28.793Z,622.99
2023-04-24T08:47:44.764Z,623.50
2023-04-24T08:48:44.664Z,623.67
2023-04-24T08:49:44.877Z,623.09
2023-04-24T08:50:44.700Z,623.00
2023-04-24T08:51:44.689Z,622.95
2023-04-24T08:52:44.622Z,622.96
2023-04-24T08:53:44.583Z,622.96
2023-04-24T08:54:44.570Z,622.96
2023-04-24T08:55:44.629Z,622.95
2023-04-24T08:56:44.546Z,622.98
2023-04-24T08:57:44.541Z,623.06
2023-04-24T08:58:44.541Z,623.11
2023-04-24T08:59:44.781Z,623.39
2023-04-24T09:00:44.502Z,624.18
2023-04-24T09:01:44.607Z,624.29
2023-04-24T09:02:44.676Z,624.00
2023-04-24T09:03:44.704Z,624.11
2023-04-24T09:04:44.617Z,623.79
2023-04-24T09:05:44.494Z,624.14
2023-04-24T09:06:47.740Z,623.40
2023-04-24T09:07:44.450Z,623.09
2023-04-24T09:08:44.421Z,623.04
2023-04-24T09:09:44.854Z,623.07
2023-04-24T09:10:44.417Z,623.11
2023-04-24T09:11:44.404Z,623.12
2023-04-24T09:12:44.366Z,623.10
2023-04-24T09:13:44.358Z,623.20
2023-04-24T09:14:44.358Z,623.67
2023-04-24T09:15:44.355Z,624.01
2023-04-24T09:16:44.358Z,624.07
2023-04-24T09:17:44.401Z,623.62
2023-04-24T09:18:44.307Z,623.45
2023-04-24T09:19:44.476Z,623.52
2023-04-24T09:20:44.292Z,623.50
2023-04-24T09:21:45.771Z,623.81
2023-04-24T09:22:44.272Z,623.59
2023-04-24T09:23:44.261Z,623.17
2023-04-24T09:24:44.263Z,623.20
2023-04-24T09:25:44.241Z,623.74
2023-04-24T09:26:44.219Z,624.70
2023-04-24T09:27:44.215Z,624.29
2023-04-24T09:28:44.188Z,625.67
2023-04-24T09:29:44.352Z,624.19
2023-04-24T09:30:44.183Z,623.84
2023-04-24T09:31:44.185Z,623.14
2023-04-24T09:32:44.182Z,623.02
2023-04-24T09:33:44.152Z,623.00
2023-04-24T09:34:44.126Z,623.08
2023-04-24T09:35:44.113Z,623.32
2023-04-24T09:36:44.190Z,624.10
2023-04-24T09:37:44.132Z,623.53
2023-04-24T09:38:44.106Z,623.87
2023-04-24T09:39:44.387Z,624.14
2023-04-24T09:40:44.077Z,623.94
2023-04-24T09:41:44.071Z,623.89
2023-04-24T09:42:44.041Z,623.92
2023-04-24T09:43:44.029Z,623.35
2023-04-24T09:44:44.309Z,623.16
2023-04-24T09:45:44.119Z,623.30
2023-04-24T09:46:44.097Z,623.41
2023-04-24T09:47:44.122Z,623.42
2023-04-24T09:48:43.988Z,623.51
2023-04-24T09:49:44.261Z,623.66
2023-04-24T09:50:43.947Z,623.50
2023-04-24T09:51:43.935Z,623.29
2023-04-24T09:52:43.927Z,623.50
2023-04-24T09:53:44.074Z,624.26
2023-04-24T09:54:43.910Z,624.00
2023-04-24T09:55:43.901Z,624.25
2023-04-24T09:56:43.888Z,624.36
2023-04-24T09:57:43.910Z,624.09
2023-04-24T09:58:43.880Z,624.84
2023-04-24T09:59:44.151Z,624.53
2023-04-24T10:00:43.851Z,623.55
2023-04-24T10:01:43.896Z,623.81
2023-04-24T10:02:43.918Z,623.56
2023-04-24T10:03:43.857Z,624.03
2023-04-24T10:04:43.818Z,624.63
2023-04-24T10:05:43.786Z,625.22
2023-04-24T10:06:43.795Z,625.43
2023-04-24T10:07:43.762Z,625.13
2023-04-24T10:08:43.782Z,624.74
2023-04-24T10:09:44.148Z,624.41
2023-04-24T10:10:43.737Z,623.71
2023-04-24T10:11:43.723Z,623.25
2023-04-24T10:12:43.701Z,623.01
2023-04-24T10:13:43.700Z,623.00
2023-04-24T10:14:44.294Z,623.01
2023-04-24T10:15:43.813Z,623.05
2023-04-24T10:16:43.683Z,623.12
2023-04-24T10:17:43.688Z,623.31
2023-04-24T10:18:43.643Z,623.49
2023-04-24T10:19:43.849Z,624.22
2023-04-24T10:20:43.615Z,624.35
2023-04-24T10:21:43.607Z,623.77
2023-04-24T10:22:43.591Z,623.00
2023-04-24T10:23:43.605Z,622.95
2023-04-24T10:24:43.885Z,622.93
2023-04-24T10:25:43.584Z,622.89
2023-04-24T10:26:43.569Z,622.87
2023-04-24T10:27:43.542Z,622.89
2023-04-24T10:28:43.693Z,622.90
2023-04-24T10:29:43.519Z,622.93
2023-04-24T10:30:43.514Z,622.93
2023-04-24T10:31:43.573Z,622.94
2023-04-24T10:32:44.147Z,622.89
2023-04-24T10:33:43.483Z,622.88
2023-04-24T10:34:43.456Z,622.90
2023-04-24T10:35:43.475Z,622.96
2023-04-24T10:36:43.449Z,623.01
2023-04-24T10:37:43.454Z,622.99
2023-04-24T10:38:43.412Z,622.95
2023-04-24T10:39:43.408Z,622.91
2023-04-24T10:40:43.406Z,622.87
2023-04-24T10:41:43.414Z,622.87
2023-04-24T10:42:43.387Z,622.91
2023-04-24T10:43:43.367Z,622.90
2023-04-24T10:44:44.148Z,622.87
2023-04-24T10:45:43.354Z,622.88
2023-04-24T10:46:43.396Z,622.89
2023-04-24T10:47:50.894Z,622.91
2023-04-24T10:48:43.371Z,622.90
2023-04-24T10:49:43.339Z,622.87
2023-04-24T10:50:43.315Z,622.87
2023-04-24T10:51:43.285Z,622.88
2023-04-24T10:52:43.266Z,622.88
2023-04-24T10:53:43.283Z,622.91
2023-04-24T10:54:43.989Z,622.88
2023-04-24T10:55:43.266Z,622.86
2023-04-24T10:56:43.232Z,622.83
2023-04-24T10:57:45.233Z,622.85
2023-04-24T10:58:43.207Z,622.82
2023-04-24T10:59:43.215Z,622.83
2023-04-24T11:00:43.259Z,622.85
2023-04-24T11:01:43.191Z,622.84
2023-04-24T11:02:43.237Z,622.83
2023-04-24T11:03:43.335Z,622.83
2023-04-24T11:04:43.187Z,622.84
2023-04-24T11:05:43.160Z,622.82
2023-04-24T11:06:43.130Z,622.86
2023-04-24T11:07:43.130Z,622.85
2023-04-24T11:08:43.100Z,622.90
2023-04-24T11:09:43.081Z,622.89
2023-04-24T11:10:43.076Z,622.92
2023-04-24T11:11:43.049Z,622.90
2023-04-24T11:12:43.044Z,622.86
2023-04-24T11:13:43.069Z,622.84
2023-04-24T11:14:43.019Z,622.86
2023-04-24T11:15:43.023Z,622.90
2023-04-24T11:16:43.031Z,622.86
2023-04-24T11:17:43.020Z,622.87
2023-04-24T11:18:42.974Z,622.84
2023-04-24T11:19:44.721Z,622.82
2023-04-24T11:20:42.954Z,622.83
2023-04-24T11:21:42.938Z,622.84
2023-04-24T11:22:42.924Z,622.85
2023-04-24T11:23:42.916Z,622.82
2023-04-24T11:24:42.921Z,622.80
2023-04-24T11:25:42.902Z,622.82
2023-04-24T11:26:42.890Z,622.80
2023-04-24T11:27:42.894Z,622.82
2023-04-24T11:28:42.903Z,622.89
2023-04-24T11:29:42.870Z,622.91
2023-04-24T11:30:42.834Z,622.85
2023-04-24T11:31:42.847Z,622.88
2023-04-24T11:32:43.005Z,622.91
2023-04-24T11:33:42.812Z,622.87
2023-04-24T11:34:42.789Z,622.86
2023-04-24T11:35:42.780Z,622.82
2023-04-24T11:36:42.769Z,622.86
2023-04-24T11:37:42.775Z,622.83
2023-04-24T11:38:42.741Z,622.84
2023-04-24T11:39:42.741Z,622.82
2023-04-24T11:40:42.725Z,622.84
2023-04-24T11:41:42.723Z,622.83
2023-04-24T11:42:42.709Z,622.80
2023-04-24T11:43:42.684Z,622.83
2023-04-24T11:44:42.690Z,622.88
2023-04-24T11:45:42.999Z,622.84
2023-04-24T11:46:42.694Z,622.82
2023-04-24T11:47:42.659Z,622.85
2023-04-24T11:48:42.638Z,622.81
2023-04-24T11:49:42.628Z,622.83
2023-04-24T11:50:42.626Z,622.81
2023-04-24T11:51:52.256Z,622.86
2023-04-24T11:52:43.592Z,622.84
2023-04-24T11:53:42.741Z,622.81
2023-04-24T11:54:42.583Z,622.80
2023-04-24T11:55:42.574Z,622.81
2023-04-24T11:56:42.564Z,622.78
2023-04-24T11:57:42.535Z,622.77
2023-04-24T11:58:42.540Z,622.78
2023-04-24T11:59:42.560Z,622.79
2023-04-24T12:00:42.504Z,622.79
2023-04-24T12:01:42.755Z,622.81
2023-04-24T12:02:42.609Z,622.79
2023-04-24T12:03:42.699Z,622.81
2023-04-24T12:04:42.843Z,622.80
2023-04-24T12:05:42.687Z,622.79
2023-04-24T12:06:42.495Z,622.80
2023-04-24T12:07:42.426Z,622.81
2023-04-24T12:08:43.554Z,622.80
2023-04-24T12:09:42.416Z,622.80
2023-04-24T12:10:42.404Z,622.80
2023-04-24T12:11:42.374Z,622.84
2023-04-24T12:12:42.405Z,622.80
2023-04-24T12:13:42.368Z,622.81
2023-04-24T12:14:42.367Z,622.83
2023-04-24T12:15:42.347Z,622.81
2023-04-24T12:16:42.344Z,622.80
2023-04-24T12:17:42.444Z,622.81
2023-04-24T12:18:42.303Z,622.80
2023-04-24T12:19:42.288Z,622.82
2023-04-24T12:20:42.303Z,622.82
2023-04-24T12:21:42.268Z,622.81
2023-04-24T12:22:42.256Z,622.81
2023-04-24T12:23:42.254Z,622.78
2023-04-24T12:24:42.243Z,622.79
2023-04-24T12:25:42.263Z,622.80
2023-04-24T12:26:42.997Z,622.80
2023-04-24T12:27:42.210Z,622.82
2023-04-24T12:28:42.190Z,622.82
2023-04-24T12:29:42.176Z,622.85